Time;durP1;ratioP1;P1;durP2;ratioP2;P2;SDS_P1;SDS_P2;PMS_P1;PMS_P2;Temp;Humidity;BMP_temperature;BMP_pressure;BME280_temperature;BME280_humidity;BME280_pressure;Samples;Min_cycle;Max_cycle;Signal;HPM_P1;HPM_P2
2022/12/30 00:00:54;;;;;;;2.42;1.73;;;9.20;99.90;;;;;;5013786;28;20524;-79
2022/12/30 00:03:20;;;;;;;2.37;1.10;;;9.60;99.90;;;;;;5006728;28;20202;-79
2022/12/30 00:05:45;;;;;;;0.80;0.80;;;9.30;99.90;;;;;;5019277;28;20616;-78
2022/12/30 00:10:55;;;;;;;1.20;0.90;;;9.10;99.90;;;;;;5004362;28;20194;-79
2022/12/30 00:35:20;;;;;;;0.75;0.60;;;9.10;99.90;;;;;;5013101;28;20598;-78
2022/12/30 00:37:45;;;;;;;0.80;0.80;;;9.00;99.90;;;;;;5012425;28;20190;-78
2022/12/30 00:40:11;;;;;;;0.90;0.90;;;9.00;99.90;;;;;;5002023;28;20188;-79
2022/12/30 00:45:24;;;;;;;1.13;0.70;;;9.10;99.90;;;;;;5012610;28;20992;-79
2022/12/30 00:47:50;;;;;;;0.80;0.70;;;8.70;99.90;;;;;;5008245;28;20207;-78
2022/12/30 00:58:28;;;;;;;0.98;0.80;;;8.90;99.90;;;;;;5012597;28;20554;-79
2022/12/30 01:00:55;;;;;;;1.73;0.80;;;8.90;99.90;;;;;;5012022;28;20199;-79
2022/12/30 01:03:20;;;;;;;3.00;0.70;;;8.40;99.90;;;;;;5009313;28;20226;-79
2022/12/30 01:05:46;;;;;;;1.20;0.93;;;8.90;99.90;;;;;;5012187;28;20253;-79
2022/12/30 01:08:11;;;;;;;0.80;0.73;;;9.40;99.90;;;;;;5012469;28;20261;-79
2022/12/30 01:10:40;;;;;;;1.10;0.93;;;8.90;99.90;;;;;;5000609;28;20190;-79
2022/12/30 01:13:08;;;;;;;0.80;0.80;;;9.00;99.90;;;;;;5010910;28;20631;-79
2022/12/30 01:15:34;;;;;;;0.80;0.70;;;8.90;99.90;;;;;;5011801;28;20218;-79
2022/12/30 01:18:00;;;;;;;0.60;0.57;;;9.00;99.90;;;;;;5002988;28;20191;-79
2022/12/30 01:20:25;;;;;;;1.63;0.80;;;9.10;99.90;;;;;;5025868;28;20201;-79
2022/12/30 01:22:51;;;;;;;0.63;0.60;;;9.20;99.90;;;;;;5011905;28;20448;-79
2022/12/30 01:25:16;;;;;;;1.03;0.90;;;8.70;99.90;;;;;;5008408;28;20215;-79
2022/12/30 01:27:42;;;;;;;1.63;0.97;;;9.00;99.90;;;;;;5011941;28;20234;-79
2022/12/30 01:30:08;;;;;;;1.60;0.73;;;9.40;99.90;;;;;;5012643;28;20816;-79
2022/12/30 01:32:36;;;;;;;1.27;0.95;;;8.80;99.90;;;;;;5011938;28;20269;-79
2022/12/30 01:35:03;;;;;;;0.60;0.60;;;8.70;99.90;;;;;;5001361;28;20183;-79
2022/12/30 01:37:28;;;;;;;0.75;0.70;;;9.30;99.90;;;;;;5011442;28;20186;-79
2022/12/30 01:39:54;;;;;;;0.87;0.80;;;8.60;99.90;;;;;;5006290;28;20386;-79
2022/12/30 01:42:23;;;;;;;0.87;0.83;;;9.10;99.90;;;;;;5012434;28;20623;-79
2022/12/30 01:44:49;;;;;;;1.45;1.15;;;9.30;99.90;;;;;;5011228;28;20210;-79
2022/12/30 01:47:22;;;;;;;1.80;1.40;;;9.10;99.90;;;;;;5017514;28;20183;-79
2022/12/30 01:49:51;;;;;;;1.80;1.30;;;8.90;99.90;;;;;;5007945;28;20191;-79
2022/12/30 01:52:22;;;;;;;1.02;0.90;;;9.10;99.90;;;;;;5011376;28;20211;-79
2022/12/30 01:54:49;;;;;;;1.60;1.38;;;8.70;99.90;;;;;;5007920;28;20555;-79
2022/12/30 01:57:15;;;;;;;1.20;1.10;;;8.60;99.90;;;;;;5011048;28;20195;-79
2022/12/30 01:59:43;;;;;;;1.30;1.20;;;8.50;99.90;;;;;;5011933;28;20183;-79
2022/12/30 02:02:09;;;;;;;1.08;0.98;;;8.70;99.90;;;;;;5009736;28;20582;-79
2022/12/30 02:04:34;;;;;;;1.00;0.90;;;9.00;99.90;;;;;;5007443;28;20183;-79
2022/12/30 02:07:18;;;;;;;2.10;0.90;;;8.70;99.90;;;;;;5010848;28;20203;-78
2022/12/30 02:09:46;;;;;;;3.03;1.92;;;8.50;99.90;;;;;;5001774;28;20184;-77
2022/12/30 02:12:11;;;;;;;1.08;0.93;;;8.40;99.90;;;;;;5024586;28;20246;-77
2022/12/30 02:14:39;;;;;;;0.80;0.80;;;8.80;99.90;;;;;;5009663;28;20219;-77
2022/12/30 02:17:18;;;;;;;2.75;0.93;;;8.40;99.90;;;;;;5011357;28;20694;-78
2022/12/30 02:20:02;;;;;;;1.00;0.85;;;8.20;99.90;;;;;;5004808;28;20189;-79
2022/12/30 02:22:46;;;;;;;0.70;0.70;;;7.60;99.90;;;;;;5011114;28;20206;-79
2022/12/30 02:25:15;;;;;;;1.35;0.70;;;7.70;99.90;;;;;;5002600;28;20569;-78
2022/12/30 02:28:39;;;;;;;0.70;0.70;;;8.10;99.90;;;;;;5010872;28;20221;-78
2022/12/30 02:31:26;;;;;;;0.80;0.60;;;8.00;99.90;;;;;;5019109;28;20222;-78
2022/12/30 02:33:59;;;;;;;0.80;0.60;;;8.20;99.90;;;;;;5007810;28;20194;-77
2022/12/30 02:36:44;;;;;;;0.80;0.70;;;8.10;99.90;;;;;;5010475;28;20191;-79
2022/12/30 02:39:41;;;;;;;1.10;0.60;;;8.20;99.90;;;;;;5006022;28;20214;-78
2022/12/30 02:45:08;;;;;;;0.70;0.60;;;8.40;99.90;;;;;;5009623;28;20268;-79
2022/12/30 02:47:44;;;;;;;0.80;0.68;;;8.30;99.90;;;;;;5004938;28;20206;-79
2022/12/30 02:53:01;;;;;;;1.48;0.80;;;8.30;99.90;;;;;;5009901;28;20194;-78
2022/12/30 02:55:27;;;;;;;1.30;1.20;;;7.30;99.90;;;;;;5001508;28;20191;-78
2022/12/30 02:57:52;;;;;;;0.90;0.80;;;7.90;99.90;;;;;;5010223;28;20206;-78
2022/12/30 03:06:44;;;;;;;1.20;1.00;;;7.70;99.90;;;;;;5004973;28;20218;-79
2022/12/30 03:09:31;;;;;;;1.27;1.17;;;7.90;99.90;;;;;;4990810;28;20184;-78
2022/12/30 03:12:30;;;;;;;1.63;1.30;;;7.50;99.90;;;;;;5004095;28;20222;-79
2022/12/30 03:15:01;;;;;;;2.05;1.10;;;7.70;99.90;;;;;;5012982;28;20194;-78
2022/12/30 03:17:37;;;;;;;1.20;1.00;;;7.90;99.90;;;;;;5014238;28;20187;-78
2022/12/30 03:20:09;;;;;;;1.30;1.20;;;7.50;99.90;;;;;;5011743;28;20207;-77
2022/12/30 03:28:27;;;;;;;1.27;1.17;;;7.40;99.90;;;;;;5011995;28;20970;-77
2022/12/30 03:31:01;;;;;;;0.95;0.90;;;7.20;99.90;;;;;;5012990;28;20191;-77
2022/12/30 03:33:28;;;;;;;1.35;1.10;;;6.80;99.90;;;;;;5014043;28;20195;-77
2022/12/30 03:36:02;;;;;;;1.17;0.93;;;6.60;99.90;;;;;;5011688;28;20194;-77
2022/12/30 03:38:32;;;;;;;1.10;1.00;;;6.50;99.90;;;;;;5013129;28;20197;-78
2022/12/30 03:41:01;;;;;;;1.10;1.00;;;7.20;99.90;;;;;;5009451;28;20186;-79
2022/12/30 03:43:27;;;;;;;1.25;1.00;;;6.80;99.90;;;;;;5013920;28;20597;-79
2022/12/30 03:45:53;;;;;;;2.63;1.87;;;7.30;99.90;;;;;;5020209;28;20206;-78
2022/12/30 03:48:19;;;;;;;1.20;1.10;;;6.90;99.90;;;;;;5015030;28;20480;-78
2022/12/30 03:50:45;;;;;;;1.43;1.20;;;6.90;99.90;;;;;;5008535;28;20187;-78
2022/12/30 03:53:11;;;;;;;1.42;1.33;;;6.50;99.90;;;;;;5013560;28;20190;-78
2022/12/30 03:55:36;;;;;;;1.57;0.90;;;6.80;99.90;;;;;;5010272;28;20194;-78
2022/12/30 03:58:02;;;;;;;1.20;0.97;;;6.60;99.90;;;;;;5013982;28;20183;-79
2022/12/30 04:00:27;;;;;;;1.20;1.10;;;7.10;99.90;;;;;;5013078;28;20484;-78
2022/12/30 04:02:53;;;;;;;0.87;0.80;;;6.50;99.90;;;;;;5013323;28;20241;-77
2022/12/30 04:05:18;;;;;;;0.80;0.80;;;6.60;99.90;;;;;;5010902;28;20233;-78
2022/12/30 04:07:44;;;;;;;2.30;1.13;;;6.50;99.90;;;;;;5013233;28;20653;-78
2022/12/30 04:10:09;;;;;;;0.80;0.80;;;6.60;99.90;;;;;;5001792;28;20270;-78
2022/12/30 04:12:35;;;;;;;1.47;0.80;;;6.60;99.90;;;;;;5013226;28;20240;-79
2022/12/30 04:15:00;;;;;;;2.10;1.00;;;6.50;99.90;;;;;;5013754;28;20553;-78
2022/12/30 04:17:26;;;;;;;0.97;0.80;;;6.40;99.90;;;;;;5012916;28;20191;-78
2022/12/30 04:19:51;;;;;;;1.07;0.90;;;6.50;99.90;;;;;;5007404;28;20240;-78
2022/12/30 04:22:17;;;;;;;1.83;0.90;;;6.80;99.90;;;;;;5013054;28;20217;-78
2022/12/30 04:24:43;;;;;;;1.20;1.00;;;6.60;99.90;;;;;;5004896;28;20217;-77
2022/12/30 04:27:08;;;;;;;1.07;0.97;;;6.30;99.90;;;;;;5011454;28;20599;-77
2022/12/30 04:29:34;;;;;;;0.90;0.80;;;6.70;99.90;;;;;;5012857;28;20187;-78
2022/12/30 04:31:59;;;;;;;0.77;0.77;;;6.60;99.90;;;;;;5013549;28;20213;-78
2022/12/30 04:34:25;;;;;;;1.43;1.10;;;6.20;99.90;;;;;;5004769;28;20645;-78
2022/12/30 04:36:50;;;;;;;1.17;1.07;;;6.30;99.90;;;;;;5012416;28;20194;-78
2022/12/30 04:39:16;;;;;;;1.40;1.30;;;6.30;99.90;;;;;;5007463;28;20180;-78
2022/12/30 04:41:41;;;;;;;1.10;1.00;;;5.70;99.90;;;;;;5012327;28;20285;-78
2022/12/30 04:44:07;;;;;;;1.30;1.20;;;6.50;99.90;;;;;;5012920;28;20278;-77
2022/12/30 04:46:33;;;;;;;2.40;1.20;;;6.10;99.90;;;;;;5018655;28;20257;-78
2022/12/30 04:48:58;;;;;;;1.20;1.10;;;6.10;99.90;;;;;;5009179;28;20525;-78
2022/12/30 04:51:24;;;;;;;1.67;1.57;;;6.20;99.90;;;;;;5012367;28;20453;-77
2022/12/30 04:53:50;;;;;;;0.93;0.90;;;6.40;99.90;;;;;;5010518;28;20190;-78
2022/12/30 04:56:17;;;;;;;2.27;1.30;;;5.90;99.90;;;;;;5010321;28;20434;-77
2022/12/30 04:58:43;;;;;;;1.50;1.35;;;6.10;99.90;;;;;;5012589;28;20527;-77
2022/12/30 05:01:08;;;;;;;1.20;0.90;;;6.10;99.90;;;;;;5012350;28;20737;-78
2022/12/30 05:03:34;;;;;;;1.10;0.80;;;6.10;99.90;;;;;;5010326;28;20193;-78
2022/12/30 05:05:59;;;;;;;1.83;1.20;;;6.50;99.90;;;;;;5009790;28;20206;-77
2022/12/30 05:08:25;;;;;;;2.70;1.10;;;6.30;99.90;;;;;;5012035;28;20179;-78
2022/12/30 05:10:51;;;;;;;1.23;0.93;;;6.00;99.90;;;;;;5001207;28;20190;-79
2022/12/30 05:13:17;;;;;;;1.80;1.30;;;5.90;99.90;;;;;;5012172;28;20247;-78
2022/12/30 05:15:42;;;;;;;1.30;1.10;;;5.90;99.90;;;;;;5012283;28;20199;-78
2022/12/30 05:18:10;;;;;;;1.17;0.90;;;6.10;99.90;;;;;;5011660;28;20664;-78
2022/12/30 05:20:36;;;;;;;1.20;1.00;;;6.10;99.90;;;;;;5010304;28;20210;-78
2022/12/30 05:23:01;;;;;;;1.23;1.13;;;6.10;99.90;;;;;;5011724;28;20206;-79
2022/12/30 05:28:11;;;;;;;1.25;1.00;;;6.50;99.90;;;;;;5012542;28;20281;-78
2022/12/30 05:30:37;;;;;;;2.70;0.97;;;6.10;99.90;;;;;;5012485;28;20258;-79
2022/12/30 05:33:02;;;;;;;1.33;0.90;;;5.90;99.90;;;;;;5011484;28;20195;-78
2022/12/30 05:35:28;;;;;;;1.20;0.87;;;6.30;99.90;;;;;;5008805;28;20191;-78
2022/12/30 05:37:54;;;;;;;2.00;1.00;;;6.40;99.90;;;;;;5010025;28;20775;-79
2022/12/30 05:40:20;;;;;;;1.23;1.00;;;6.50;99.90;;;;;;5008568;28;20195;-79
2022/12/30 05:42:46;;;;;;;1.92;0.95;;;6.20;99.90;;;;;;5011341;28;20237;-77
2022/12/30 05:45:11;;;;;;;2.63;1.50;;;6.60;99.90;;;;;;5013693;28;20264;-77
2022/12/30 05:47:37;;;;;;;4.37;1.57;;;6.10;99.90;;;;;;5015408;28;20186;-77
2022/12/30 05:50:03;;;;;;;1.20;0.87;;;6.20;99.90;;;;;;5007049;28;20556;-79
2022/12/30 05:52:29;;;;;;;1.33;0.87;;;6.30;99.90;;;;;;5011351;28;20191;-77
2022/12/30 05:54:55;;;;;;;0.73;0.60;;;6.70;99.90;;;;;;5008519;28;20441;-78
2022/12/30 05:57:21;;;;;;;2.13;0.90;;;6.70;99.90;;;;;;5011432;28;20652;-78
2022/12/30 05:59:46;;;;;;;0.80;0.80;;;6.30;99.90;;;;;;5011363;28;20183;-77
2022/12/30 06:02:12;;;;;;;1.20;1.10;;;6.10;99.90;;;;;;5011019;28;20587;-78
2022/12/30 06:04:37;;;;;;;1.37;0.87;;;6.30;99.90;;;;;;5009099;28;20194;-78
2022/12/30 06:07:03;;;;;;;1.27;1.17;;;6.40;99.90;;;;;;5011003;28;20213;-78
2022/12/30 06:09:28;;;;;;;1.53;1.10;;;6.20;99.90;;;;;;5001778;28;20199;-77
2022/12/30 06:11:54;;;;;;;1.97;1.00;;;5.90;99.90;;;;;;5009355;28;20202;-78
2022/12/30 06:14:20;;;;;;;1.50;1.10;;;6.00;99.90;;;;;;5013891;28;20618;-78
2022/12/30 06:16:46;;;;;;;1.10;1.00;;;6.00;99.90;;;;;;5010522;28;20269;-78
2022/12/30 06:19:11;;;;;;;1.20;1.10;;;6.30;99.90;;;;;;5003500;28;20269;-78
2022/12/30 06:21:37;;;;;;;2.50;1.50;;;6.00;99.90;;;;;;5010903;28;20209;-78
2022/12/30 06:24:03;;;;;;;2.00;1.20;;;5.90;99.90;;;;;;5006756;28;20190;-78
2022/12/30 06:26:28;;;;;;;1.07;0.97;;;5.90;99.90;;;;;;5006890;28;20210;-78
2022/12/30 06:28:54;;;;;;;2.03;1.13;;;6.30;99.90;;;;;;5010969;28;20422;-78
2022/12/30 06:31:19;;;;;;;1.50;1.20;;;5.90;99.90;;;;;;5010947;28;20213;-78
2022/12/30 06:33:45;;;;;;;1.83;1.40;;;5.70;99.90;;;;;;5008005;28;20282;-78
2022/12/30 06:36:11;;;;;;;1.90;1.70;;;6.20;99.90;;;;;;5010132;28;20189;-78
2022/12/30 06:38:38;;;;;;;1.52;1.40;;;5.80;99.90;;;;;;5010144;28;20194;-78
2022/12/30 06:41:03;;;;;;;2.53;1.58;;;5.80;99.90;;;;;;5007165;28;20229;-78
2022/12/30 06:43:29;;;;;;;1.33;1.17;;;5.80;99.90;;;;;;5010533;28;20567;-78
2022/12/30 06:45:54;;;;;;;2.30;1.40;;;5.80;99.90;;;;;;5013818;28;20240;-78
2022/12/30 06:48:20;;;;;;;2.43;1.70;;;5.60;99.90;;;;;;5003502;28;20262;-79
2022/12/30 06:50:46;;;;;;;1.17;1.07;;;5.70;99.90;;;;;;5008072;28;20684;-79
2022/12/30 06:53:11;;;;;;;1.53;1.43;;;5.70;99.90;;;;;;5005531;28;20194;-78
2022/12/30 06:55:37;;;;;;;1.50;1.40;;;5.70;99.90;;;;;;5002742;28;20594;-78
2022/12/30 06:58:03;;;;;;;2.17;1.60;;;5.80;99.90;;;;;;5010261;28;20181;-78
2022/12/30 07:00:29;;;;;;;2.13;1.45;;;5.50;99.90;;;;;;5008834;28;20670;-78
2022/12/30 07:02:55;;;;;;;1.35;1.25;;;6.00;99.90;;;;;;5010474;28;20229;-78
2022/12/30 07:05:20;;;;;;;1.77;1.33;;;5.60;99.90;;;;;;5019116;28;20205;-78
2022/12/30 07:07:46;;;;;;;1.73;1.63;;;5.70;99.90;;;;;;5010112;28;20194;-79
2022/12/30 07:10:11;;;;;;;2.27;1.30;;;5.60;99.90;;;;;;4997146;28;20655;-78
2022/12/30 07:12:37;;;;;;;1.90;1.70;;;5.60;99.90;;;;;;5010135;28;20667;-79
2022/12/30 07:15:03;;;;;;;1.30;1.20;;;6.00;99.90;;;;;;5010505;28;20305;-78
2022/12/30 07:17:28;;;;;;;1.70;1.40;;;5.80;99.90;;;;;;5007303;28;20179;-78
2022/12/30 07:19:54;;;;;;;2.13;1.70;;;5.50;99.90;;;;;;5009849;28;20702;-78
2022/12/30 07:22:19;;;;;;;1.77;1.67;;;6.00;99.90;;;;;;5010307;28;20209;-78
2022/12/30 07:24:46;;;;;;;2.10;1.80;;;5.40;99.90;;;;;;5006765;28;20193;-79
2022/12/30 07:27:12;;;;;;;3.75;1.70;;;5.50;99.90;;;;;;5012946;28;20232;-78
2022/12/30 07:29:38;;;;;;;1.97;1.47;;;5.60;99.90;;;;;;5009879;28;20564;-78
2022/12/30 07:32:05;;;;;;;2.28;2.08;;;5.50;99.90;;;;;;5010246;28;21011;-78
2022/12/30 07:34:30;;;;;;;3.33;2.08;;;5.50;99.90;;;;;;5009016;28;20210;-78
2022/12/30 07:36:56;;;;;;;2.07;1.77;;;5.50;99.90;;;;;;5009954;28;20215;-79
2022/12/30 07:39:22;;;;;;;2.20;2.00;;;5.90;99.90;;;;;;5004887;28;20660;-78
2022/12/30 07:41:48;;;;;;;2.75;2.20;;;5.80;99.90;;;;;;5009652;28;20214;-79
2022/12/30 07:44:13;;;;;;;3.00;2.40;;;5.70;99.90;;;;;;5009737;28;20187;-79
2022/12/30 07:46:39;;;;;;;2.97;2.37;;;5.30;99.90;;;;;;5020012;28;20241;-78
2022/12/30 07:49:04;;;;;;;3.20;2.90;;;5.60;99.90;;;;;;5007322;28;20186;-78
2022/12/30 07:51:29;;;;;;;4.50;3.53;;;5.60;99.90;;;;;;5012170;28;20300;-78
2022/12/30 07:53:58;;;;;;;3.73;3.13;;;5.30;99.90;;;;;;5009417;28;20199;-78
2022/12/30 07:56:23;;;;;;;2.95;2.75;;;5.70;99.90;;;;;;5012451;28;20190;-79
2022/12/30 07:58:52;;;;;;;3.93;3.53;;;5.20;99.90;;;;;;5013496;28;20179;-78
2022/12/30 08:01:17;;;;;;;3.28;2.97;;;5.60;99.90;;;;;;5001752;28;20241;-78
2022/12/30 08:03:43;;;;;;;4.47;3.17;;;5.10;99.90;;;;;;5013302;28;20226;-78
2022/12/30 08:06:14;;;;;;;3.10;2.90;;;5.40;99.90;;;;;;5012893;28;20210;-79
2022/12/30 08:08:41;;;;;;;2.90;2.70;;;5.80;99.90;;;;;;5006251;28;20213;-78
2022/12/30 08:11:08;;;;;;;3.35;3.05;;;5.90;99.90;;;;;;5003191;28;20201;-78
2022/12/30 08:13:36;;;;;;;3.42;2.70;;;5.60;99.90;;;;;;5011891;28;20566;-78
2022/12/30 08:16:09;;;;;;;3.90;3.03;;;5.70;99.90;;;;;;5012694;28;20189;-77
2022/12/30 08:18:35;;;;;;;2.80;2.60;;;5.60;99.90;;;;;;5005788;28;20197;-78
2022/12/30 08:21:06;;;;;;;2.60;2.40;;;5.90;99.90;;;;;;5011870;28;20194;-78
2022/12/30 08:23:32;;;;;;;3.40;2.85;;;5.80;99.90;;;;;;5012214;28;20671;-78
2022/12/30 08:26:09;;;;;;;2.38;2.08;;;6.20;99.90;;;;;;5004290;28;20354;-78
2022/12/30 08:28:36;;;;;;;2.30;2.10;;;6.30;99.90;;;;;;5010261;28;20177;-78
2022/12/30 08:31:07;;;;;;;2.55;1.85;;;6.00;99.90;;;;;;5015034;28;20179;-78
2022/12/30 08:33:33;;;;;;;4.40;2.25;;;6.60;99.90;;;;;;5010525;28;20175;-78
2022/12/30 08:36:07;;;;;;;2.97;2.72;;;5.90;99.90;;;;;;5012614;28;20270;-78
2022/12/30 08:38:34;;;;;;;2.70;2.50;;;6.10;99.90;;;;;;5012703;28;20186;-77
2022/12/30 08:41:12;;;;;;;3.22;2.38;;;6.10;99.90;;;;;;5008978;28;20729;-79
2022/12/30 08:43:37;;;;;;;2.60;2.40;;;6.40;99.90;;;;;;5012691;28;20194;-79
2022/12/30 08:46:03;;;;;;;2.63;2.43;;;7.00;99.90;;;;;;5017800;28;20213;-78
2022/12/30 08:48:29;;;;;;;3.83;3.20;;;6.40;99.90;;;;;;5007434;28;20210;-79
2022/12/30 08:50:55;;;;;;;2.58;2.30;;;6.60;99.90;;;;;;5014344;28;20214;-78
2022/12/30 08:53:21;;;;;;;5.22;2.75;;;6.30;99.90;;;;;;5012419;28;20175;-78
2022/12/30 08:55:47;;;;;;;3.00;2.70;;;6.40;99.90;;;;;;5010830;28;20194;-78
2022/12/30 08:58:12;;;;;;;3.07;1.97;;;6.60;99.90;;;;;;5009881;28;20205;-79
2022/12/30 09:00:38;;;;;;;2.00;1.80;;;6.80;99.90;;;;;;5012170;28;20198;-79
2022/12/30 09:03:04;;;;;;;2.07;1.87;;;6.40;99.90;;;;;;5007501;28;20281;-78
2022/12/30 09:05:32;;;;;;;3.20;2.03;;;6.60;99.90;;;;;;5013095;28;20469;-78
2022/12/30 09:07:58;;;;;;;2.00;1.80;;;6.90;99.90;;;;;;5021680;28;20266;-79
2022/12/30 09:10:23;;;;;;;2.13;1.70;;;6.80;99.90;;;;;;5009636;28;20612;-78
2022/12/30 09:12:49;;;;;;;4.10;2.10;;;6.70;99.90;;;;;;5011962;28;20739;-78
2022/12/30 09:15:14;;;;;;;2.37;2.00;;;7.20;99.90;;;;;;5011503;28;20183;-79
2022/12/30 09:17:40;;;;;;;1.80;1.70;;;6.90;99.90;;;;;;5004755;28;20640;-78
2022/12/30 09:20:06;;;;;;;3.00;2.20;;;7.40;99.90;;;;;;5011574;28;20209;-78
2022/12/30 09:22:31;;;;;;;4.22;2.55;;;6.90;99.90;;;;;;5015246;28;20203;-78
2022/12/30 09:24:57;;;;;;;2.50;2.03;;;7.50;99.90;;;;;;5004115;28;20185;-77
2022/12/30 09:27:22;;;;;;;2.67;2.20;;;7.00;99.90;;;;;;5011550;28;20186;-78
2022/12/30 09:29:48;;;;;;;2.20;2.00;;;7.30;99.90;;;;;;5011303;28;20174;-78
2022/12/30 09:32:13;;;;;;;4.30;1.83;;;8.10;99.90;;;;;;5010168;28;20206;-79
2022/12/30 09:34:41;;;;;;;2.93;2.40;;;8.20;99.90;;;;;;5008004;28;20214;-78
2022/12/30 09:37:07;;;;;;;2.17;1.98;;;9.20;99.90;;;;;;5011621;28;20175;-78
2022/12/30 09:39:32;;;;;;;2.07;1.70;;;9.80;99.90;;;;;;5007135;28;20180;-78
2022/12/30 09:45:10;;;;;;;3.35;2.17;;;10.50;99.90;;;;;;5011298;28;20211;-79
2022/12/30 09:47:47;;;;;;;1.50;1.35;;;10.20;99.90;;;;;;5004801;28;20678;-78
2022/12/30 09:50:21;;;;;;;2.10;1.90;;;9.90;99.90;;;;;;5011381;28;20190;-79
2022/12/30 09:53:03;;;;;;;2.60;2.10;;;9.40;99.90;;;;;;5011290;28;20411;-79
2022/12/30 09:55:34;;;;;;;2.65;1.55;;;9.20;99.90;;;;;;5010538;28;20233;-79
2022/12/30 09:58:05;;;;;;;2.38;1.60;;;9.30;99.90;;;;;;5010578;28;20190;-78
2022/12/30 10:00:34;;;;;;;2.08;1.50;;;9.30;99.90;;;;;;5010794;28;20188;-80
2022/12/30 10:03:05;;;;;;;2.00;1.10;;;9.20;99.90;;;;;;5011265;28;20215;-79
2022/12/30 10:05:56;;;;;;;2.70;1.90;;;11.80;99.90;;;;;;5009415;28;20688;-79
2022/12/30 10:09:15;;;;;;;2.75;1.65;;;10.30;99.90;;;;;;5010435;28;20263;-78
2022/12/30 10:12:03;;;;;;;2.08;1.40;;;10.70;99.90;;;;;;5015858;28;20217;-79
2022/12/30 10:14:35;;;;;;;2.03;1.73;;;11.00;99.90;;;;;;4995683;28;20664;-78
2022/12/30 10:17:29;;;;;;;1.67;1.58;;;10.80;99.90;;;;;;5008723;28;20266;-79
2022/12/30 10:20:14;;;;;;;1.80;1.42;;;10.70;99.90;;;;;;5010827;28;20757;-79
2022/12/30 10:23:03;;;;;;;1.13;1.00;;;10.90;99.90;;;;;;5002084;28;20245;-79
2022/12/30 10:25:39;;;;;;;1.13;0.95;;;11.40;99.90;;;;;;5001861;28;20213;-78
2022/12/30 10:28:08;;;;;;;1.27;1.15;;;11.50;99.90;;;;;;5017644;28;20681;-79
2022/12/30 10:30:38;;;;;;;1.23;1.08;;;12.00;99.90;;;;;;5010000;28;20636;-78
2022/12/30 10:33:08;;;;;;;1.23;1.00;;;12.00;99.90;;;;;;5008214;28;20205;-78
2022/12/30 10:35:37;;;;;;;1.50;0.90;;;12.20;99.90;;;;;;5010042;28;20725;-78
2022/12/30 10:38:22;;;;;;;1.13;1.02;;;12.40;99.90;;;;;;5010216;28;20608;-78
2022/12/30 10:41:11;;;;;;;1.42;0.93;;;12.70;99.40;;;;;;5006424;28;20705;-78
2022/12/30 10:43:37;;;;;;;2.10;1.20;;;13.00;98.90;;;;;;5010235;28;20183;-79
2022/12/30 10:46:05;;;;;;;2.43;1.40;;;13.80;98.70;;;;;;5011440;28;20206;-80
2022/12/30 10:48:47;;;;;;;1.98;1.20;;;13.40;97.90;;;;;;5006813;28;20184;-79
2022/12/30 10:51:15;;;;;;;2.85;1.33;;;13.60;97.40;;;;;;5009675;28;20705;-79
2022/12/30 10:53:45;;;;;;;1.52;1.42;;;13.20;96.90;;;;;;5009809;28;20269;-79
2022/12/30 10:56:24;;;;;;;1.25;1.15;;;14.00;96.80;;;;;;5007459;28;20206;-79
2022/12/30 10:58:53;;;;;;;1.20;1.10;;;14.10;96.50;;;;;;5010312;28;20218;-79
2022/12/30 11:01:28;;;;;;;1.45;1.30;;;14.40;96.90;;;;;;5009987;28;20237;-79
2022/12/30 11:03:58;;;;;;;1.10;1.00;;;14.20;96.10;;;;;;5007759;28;20190;-79
2022/12/30 11:06:33;;;;;;;1.23;1.13;;;14.00;96.70;;;;;;5008740;28;20603;-79
2022/12/30 11:09:25;;;;;;;3.05;1.45;;;13.70;96.40;;;;;;5007602;28;20670;-78
2022/12/30 11:14:44;;;;;;;1.20;1.05;;;14.00;97.10;;;;;;5009763;28;20337;-79
2022/12/30 11:17:15;;;;;;;1.20;1.08;;;13.90;96.80;;;;;;5008370;28;20296;-78
2022/12/30 11:19:48;;;;;;;2.35;1.70;;;13.80;97.20;;;;;;5011510;28;20198;-78
2022/12/30 11:22:14;;;;;;;1.67;1.30;;;13.10;97.20;;;;;;5013668;28;20234;-78
2022/12/30 11:24:46;;;;;;;1.10;1.00;;;13.10;98.20;;;;;;5006309;28;20672;-78
2022/12/30 11:27:11;;;;;;;1.90;1.30;;;12.50;98.60;;;;;;5013369;28;20277;-78
2022/12/30 11:29:37;;;;;;;2.60;1.50;;;12.50;98.70;;;;;;5013772;28;20708;-79
2022/12/30 11:32:11;;;;;;;1.17;1.07;;;12.70;99.40;;;;;;5013743;28;20309;-78
2022/12/30 11:34:40;;;;;;;2.28;1.75;;;12.20;99.10;;;;;;5010387;28;20183;-78
2022/12/30 11:37:40;;;;;;;2.25;1.27;;;12.40;99.70;;;;;;5014051;28;20183;-78
2022/12/30 11:40:32;;;;;;;1.95;1.10;;;12.50;99.40;;;;;;4988645;28;20188;-78
2022/12/30 11:43:10;;;;;;;1.48;1.15;;;12.30;99.00;;;;;;5012503;28;20687;-78
2022/12/30 11:45:39;;;;;;;1.30;1.20;;;12.50;99.50;;;;;;5018803;28;20198;-78
2022/12/30 11:48:17;;;;;;;1.27;1.02;;;12.60;99.90;;;;;;5005117;28;20257;-77
2022/12/30 11:50:52;;;;;;;2.03;1.20;;;12.20;99.40;;;;;;5014051;28;20183;-79
2022/12/30 11:53:18;;;;;;;1.35;1.25;;;12.40;99.90;;;;;;5013518;28;20180;-79
2022/12/30 11:55:51;;;;;;;1.87;1.20;;;12.00;99.90;;;;;;5011512;28;20256;-78
2022/12/30 11:58:18;;;;;;;1.20;0.80;;;12.00;99.90;;;;;;5011752;28;20202;-79
2022/12/30 12:00:46;;;;;;;0.93;0.90;;;12.00;99.90;;;;;;5011276;28;20191;-79
2022/12/30 12:03:17;;;;;;;1.75;1.10;;;11.90;99.90;;;;;;5008716;28;20549;-79
2022/12/30 12:05:44;;;;;;;1.13;1.02;;;11.70;99.90;;;;;;5011739;28;20293;-78
2022/12/30 12:08:31;;;;;;;1.30;1.10;;;11.80;99.90;;;;;;5012954;28;20179;-78
2022/12/30 12:11:11;;;;;;;1.55;1.10;;;11.90;99.90;;;;;;5001467;28;20183;-78
2022/12/30 12:13:49;;;;;;;0.93;0.80;;;11.90;99.90;;;;;;5013162;28;20191;-78
2022/12/30 12:16:23;;;;;;;1.88;1.20;;;11.90;99.90;;;;;;5012127;28;20233;-79
2022/12/30 12:18:59;;;;;;;0.90;0.85;;;11.70;99.90;;;;;;5012664;28;20268;-78
2022/12/30 12:21:28;;;;;;;1.20;0.95;;;11.70;99.90;;;;;;5006638;28;20666;-78
2022/12/30 12:24:23;;;;;;;2.03;0.90;;;11.70;99.90;;;;;;5010096;28;20289;-79
2022/12/30 12:27:02;;;;;;;2.03;1.35;;;11.70;99.90;;;;;;5010689;28;20701;-78
2022/12/30 12:29:29;;;;;;;1.77;1.40;;;11.60;99.90;;;;;;5008605;28;20282;-78
2022/12/30 12:32:20;;;;;;;1.60;1.50;;;11.80;99.90;;;;;;5011069;28;20206;-79
2022/12/30 12:35:08;;;;;;;1.20;1.10;;;11.50;99.90;;;;;;5008889;28;20673;-79
2022/12/30 12:38:03;;;;;;;1.98;1.15;;;11.70;99.90;;;;;;5012305;28;20195;-78
2022/12/30 12:41:03;;;;;;;1.48;1.38;;;11.10;99.90;;;;;;5002977;28;20191;-80
2022/12/30 12:43:42;;;;;;;1.20;1.10;;;11.50;99.90;;;;;;5011281;28;20190;-79
2022/12/30 12:46:27;;;;;;;2.17;1.85;;;11.10;99.90;;;;;;5019651;28;20689;-78
2022/12/30 12:49:17;;;;;;;1.48;1.38;;;11.30;99.90;;;;;;5012045;28;20650;-79
2022/12/30 12:51:53;;;;;;;1.38;1.27;;;11.70;99.90;;;;;;5012547;28;20209;-79
2022/12/30 12:54:25;;;;;;;1.88;1.70;;;11.40;99.90;;;;;;5011033;28;20646;-78
2022/12/30 12:57:11;;;;;;;1.35;1.23;;;10.80;99.90;;;;;;5011663;28;20654;-78
2022/12/30 13:00:07;;;;;;;1.98;1.35;;;11.50;99.90;;;;;;5008819;28;20206;-78
2022/12/30 13:02:57;;;;;;;1.45;1.35;;;10.90;99.90;;;;;;5009236;28;20230;-81
2022/12/30 13:05:32;;;;;;;2.20;1.70;;;11.40;99.90;;;;;;5011953;28;20269;-78
2022/12/30 13:08:00;;;;;;;2.08;1.52;;;11.30;99.90;;;;;;5011651;28;20189;-79
2022/12/30 13:11:08;;;;;;;3.10;2.38;;;11.40;99.90;;;;;;5000580;28;20185;-79
2022/12/30 13:13:55;;;;;;;2.28;1.50;;;11.50;99.90;;;;;;5011960;28;20196;-79
2022/12/30 13:16:26;;;;;;;1.70;1.30;;;11.50;99.90;;;;;;5011437;28;20184;-79
2022/12/30 13:18:54;;;;;;;1.58;1.33;;;11.30;99.90;;;;;;5009432;28;20201;-78
2022/12/30 13:21:23;;;;;;;2.72;1.60;;;11.30;99.90;;;;;;5012005;28;20309;-78
2022/12/30 13:23:52;;;;;;;4.95;2.70;;;11.20;99.90;;;;;;5007476;28;20190;-78
2022/12/30 13:26:22;;;;;;;5.38;2.00;;;11.40;99.90;;;;;;4998829;28;20194;-79
2022/12/30 13:28:52;;;;;;;2.20;1.83;;;11.50;99.90;;;;;;5011216;28;20274;-79
2022/12/30 13:31:47;;;;;;;1.52;1.42;;;11.50;99.90;;;;;;5011055;28;20201;-79
2022/12/30 13:34:35;;;;;;;1.58;1.40;;;11.40;99.90;;;;;;5001058;28;20190;-79
2022/12/30 13:37:09;;;;;;;1.67;1.30;;;11.50;99.90;;;;;;5009897;28;20205;-79
2022/12/30 13:39:43;;;;;;;1.30;1.20;;;11.70;99.90;;;;;;5005161;28;20179;-79
2022/12/30 13:42:30;;;;;;;1.30;1.20;;;11.50;99.90;;;;;;5011023;28;20325;-78
2022/12/30 13:44:56;;;;;;;1.92;1.35;;;11.70;99.90;;;;;;5009388;28;20181;-78
2022/12/30 13:47:41;;;;;;;1.90;1.38;;;11.80;99.90;;;;;;5012019;28;20214;-79
2022/12/30 13:50:18;;;;;;;1.95;1.25;;;11.60;99.90;;;;;;5001390;28;20185;-79
2022/12/30 13:52:46;;;;;;;1.98;1.30;;;11.60;99.90;;;;;;5010913;28;20750;-79
2022/12/30 13:55:26;;;;;;;2.58;1.17;;;11.70;99.90;;;;;;5007120;28;20213;-79
2022/12/30 13:57:59;;;;;;;1.20;1.10;;;12.20;99.90;;;;;;5008117;28;20173;-80
2022/12/30 14:00:27;;;;;;;1.30;1.00;;;11.20;99.90;;;;;;5010693;28;20186;-78
2022/12/30 14:03:17;;;;;;;1.95;1.42;;;11.80;99.90;;;;;;5009933;28;20333;-78
2022/12/30 14:05:42;;;;;;;1.30;1.13;;;11.50;99.90;;;;;;5008187;28;20211;-78
2022/12/30 14:08:17;;;;;;;1.27;1.10;;;11.00;99.90;;;;;;5009737;28;20171;-78
2022/12/30 14:11:01;;;;;;;1.38;1.10;;;11.10;99.90;;;;;;5005732;28;20194;-79
2022/12/30 14:13:26;;;;;;;1.50;1.25;;;11.50;99.90;;;;;;5009894;28;20189;-79